createdAt,value
2019-02-14T00:00:13.937Z,7.60
2019-02-14T00:02:42.529Z,11.73
2019-02-14T00:05:16.408Z,12.10
2019-02-14T00:07:41.734Z,14.57
2019-02-14T00:10:10.872Z,20.00
2019-02-14T00:12:39.445Z,13.03
2019-02-14T00:15:12.442Z,15.27
2019-02-14T00:17:41.074Z,11.50
2019-02-14T00:20:10.513Z,9.93
2019-02-14T00:22:39.416Z,7.93
2019-02-14T00:25:08.358Z,7.03
2019-02-14T00:27:36.945Z,7.73
2019-02-14T00:30:08.058Z,8.13
2019-02-14T00:32:36.637Z,7.97
2019-02-14T00:35:06.441Z,7.53
2019-02-14T00:37:35.038Z,9.10
2019-02-14T00:40:05.157Z,10.00
2019-02-14T00:42:33.749Z,8.87
2019-02-14T00:45:02.393Z,8.63
2019-02-14T00:47:31.021Z,9.40
2019-02-14T00:49:59.609Z,8.97
2019-02-14T00:52:28.179Z,9.20
2019-02-14T00:54:56.760Z,8.30
2019-02-14T00:57:25.325Z,7.23
2019-02-14T00:59:53.909Z,6.83
2019-02-14T01:02:22.614Z,6.37
2019-02-14T01:04:51.244Z,7.20
2019-02-14T01:07:19.901Z,7.67
2019-02-14T01:09:48.463Z,7.83
2019-02-14T01:12:17.194Z,6.33
2019-02-14T01:14:45.826Z,7.63
2019-02-14T01:17:14.384Z,7.40
2019-02-14T01:19:42.978Z,7.43
2019-02-14T01:22:11.540Z,7.60
2019-02-14T01:24:40.121Z,6.83
2019-02-14T01:27:08.825Z,7.30
2019-02-14T01:29:37.387Z,8.17
2019-02-14T01:32:06.113Z,6.90
2019-02-14T01:34:34.749Z,7.87
2019-02-14T01:37:03.334Z,7.53
2019-02-14T01:39:31.978Z,7.70
2019-02-14T01:42:00.618Z,7.30
2019-02-14T01:44:29.245Z,6.53
2019-02-14T01:46:57.846Z,7.33
2019-02-14T01:49:27.179Z,7.40
2019-02-14T01:51:55.741Z,7.20
2019-02-14T01:54:25.378Z,6.57
2019-02-14T01:56:54.004Z,6.77
2019-02-14T01:59:22.620Z,7.40
2019-02-14T02:01:51.198Z,7.13
2019-02-14T02:04:19.758Z,6.90
2019-02-14T02:06:48.417Z,7.57
2019-02-14T02:09:16.994Z,7.40
2019-02-14T02:11:45.705Z,6.57
2019-02-14T02:14:14.272Z,6.37
2019-02-14T02:16:42.830Z,6.80
2019-02-14T02:19:11.413Z,6.50
2019-02-14T02:21:40.041Z,6.83
2019-02-14T02:24:08.766Z,7.07
2019-02-14T02:26:37.329Z,6.63
2019-02-14T02:29:05.890Z,6.30
2019-02-14T02:31:34.622Z,6.63
2019-02-14T02:34:03.269Z,7.10
2019-02-14T02:36:31.993Z,6.90
2019-02-14T02:39:00.566Z,6.17
2019-02-14T02:41:29.190Z,6.83
2019-02-14T02:43:57.931Z,6.10
2019-02-14T02:46:26.489Z,6.23
2019-02-14T02:48:55.129Z,6.40
2019-02-14T02:51:23.650Z,6.30
2019-02-14T02:53:52.248Z,6.00
2019-02-14T02:56:20.810Z,7.40
2019-02-14T02:58:49.403Z,7.63
2019-02-14T03:01:17.967Z,7.50
2019-02-14T03:03:46.529Z,6.63
2019-02-14T03:06:15.128Z,6.07
2019-02-14T03:08:43.677Z,6.93
2019-02-14T03:11:12.346Z,6.80
2019-02-14T03:13:40.910Z,7.00
2019-02-14T03:16:09.543Z,7.23
2019-02-14T03:18:38.137Z,6.20
2019-02-14T03:21:06.716Z,6.87
2019-02-14T03:23:35.307Z,6.40
2019-02-14T03:26:03.938Z,5.53
2019-02-14T03:28:32.533Z,6.30
2019-02-14T03:31:01.166Z,6.67
2019-02-14T03:33:30.293Z,6.27
2019-02-14T03:35:58.877Z,5.80
2019-02-14T03:38:27.438Z,6.87
2019-02-14T03:40:56.102Z,6.53
2019-02-14T03:43:24.734Z,6.10
2019-02-14T03:45:53.398Z,6.03
2019-02-14T03:48:22.034Z,7.73
2019-02-14T03:51:10.043Z,7.97
2019-02-14T03:53:38.775Z,6.80
2019-02-14T03:56:07.842Z,6.63
2019-02-14T03:58:36.409Z,6.27
2019-02-14T04:01:05.111Z,6.53
2019-02-14T04:03:33.698Z,8.00
2019-02-14T04:06:02.329Z,8.90
2019-02-14T04:08:31.062Z,7.07
2019-02-14T04:10:59.689Z,6.67
2019-02-14T04:13:28.353Z,6.27
2019-02-14T04:15:56.917Z,6.10
2019-02-14T04:18:26.029Z,6.33
2019-02-14T04:20:54.666Z,5.73
2019-02-14T04:23:23.297Z,6.13
2019-02-14T04:25:51.892Z,6.50
2019-02-14T04:28:20.450Z,6.27
2019-02-14T04:30:49.116Z,6.23
2019-02-14T04:33:17.853Z,6.47
2019-02-14T04:35:46.418Z,6.53
2019-02-14T04:38:15.005Z,5.80
2019-02-14T04:40:43.642Z,6.23
2019-02-14T04:43:12.238Z,6.17
2019-02-14T04:45:40.808Z,6.73
2019-02-14T04:48:09.397Z,6.50
2019-02-14T04:50:37.966Z,6.43
2019-02-14T04:53:06.636Z,6.37
2019-02-14T04:55:35.333Z,6.33
2019-02-14T04:58:04.090Z,6.63
2019-02-14T05:00:32.753Z,6.40
2019-02-14T05:03:01.319Z,6.90
2019-02-14T05:05:29.986Z,7.50
2019-02-14T05:07:58.562Z,6.27
2019-02-14T05:10:27.157Z,5.43
2019-02-14T05:12:55.717Z,6.47
2019-02-14T05:15:24.449Z,5.83
2019-02-14T05:17:53.017Z,6.10
2019-02-14T05:20:21.578Z,6.30
2019-02-14T05:22:50.169Z,6.53
2019-02-14T05:25:18.742Z,6.17
2019-02-14T05:27:47.337Z,5.50
2019-02-14T05:30:17.842Z,6.37
2019-02-14T05:32:46.510Z,5.73
2019-02-14T05:35:15.146Z,5.77
2019-02-14T05:37:43.705Z,6.53
2019-02-14T05:40:12.531Z,6.57
2019-02-14T05:42:41.166Z,5.77
2019-02-14T05:45:14.147Z,5.87
2019-02-14T05:47:42.778Z,6.33
2019-02-14T05:50:15.549Z,6.60
2019-02-14T05:52:44.141Z,6.83
2019-02-14T05:55:13.142Z,6.03
2019-02-14T05:57:41.878Z,6.53
2019-02-14T06:00:13.177Z,5.87
2019-02-14T06:02:41.806Z,5.70
2019-02-14T06:05:10.550Z,6.87
2019-02-14T06:07:39.116Z,6.37
2019-02-14T06:10:11.842Z,6.00
2019-02-14T06:12:40.469Z,6.53
2019-02-14T06:15:13.763Z,6.33
2019-02-14T06:17:42.329Z,6.87
2019-02-14T06:20:11.979Z,6.40
2019-02-14T06:22:40.611Z,6.23
2019-02-14T06:25:11.498Z,6.57
2019-02-14T06:27:40.089Z,6.27
2019-02-14T06:30:11.660Z,5.93
2019-02-14T06:32:40.337Z,7.13
2019-02-14T06:35:10.472Z,6.13
2019-02-14T06:37:39.166Z,6.53
2019-02-14T06:40:12.515Z,5.73
2019-02-14T06:42:41.113Z,6.10
2019-02-14T06:45:15.383Z,5.93
2019-02-14T06:47:44.005Z,6.03
2019-02-14T06:50:12.670Z,6.37
2019-02-14T06:52:41.296Z,6.53
2019-02-14T06:55:10.539Z,6.77
2019-02-14T06:57:39.114Z,6.23
2019-02-14T07:00:17.711Z,6.40
2019-02-14T07:02:46.508Z,7.17
2019-02-14T07:05:15.115Z,6.67
2019-02-14T07:07:43.726Z,6.37
2019-02-14T07:10:12.707Z,6.57
2019-02-14T07:13:00.715Z,5.73
2019-02-14T07:15:29.353Z,6.60
2019-02-14T07:17:58.025Z,6.87
2019-02-14T07:20:26.600Z,6.27
2019-02-14T07:22:55.268Z,6.57
2019-02-14T07:25:23.832Z,5.93
2019-02-14T07:27:52.390Z,5.90
2019-02-14T07:30:26.618Z,6.50
2019-02-14T07:32:55.183Z,6.20
2019-02-14T07:35:24.119Z,6.30
2019-02-14T07:37:52.686Z,6.80
2019-02-14T07:40:21.290Z,7.00
2019-02-14T07:42:49.850Z,6.47
2019-02-14T07:45:18.827Z,7.00
2019-02-14T07:47:47.557Z,7.83
2019-02-14T07:50:16.274Z,8.00
2019-02-14T07:52:45.003Z,6.33
2019-02-14T07:55:14.410Z,6.17
2019-02-14T07:57:42.992Z,6.60
2019-02-14T08:00:20.513Z,6.67
2019-02-14T08:02:49.150Z,6.10
2019-02-14T08:05:17.823Z,6.50
2019-02-14T08:07:46.466Z,8.33
2019-02-14T08:10:16.610Z,7.73
2019-02-14T08:12:45.228Z,9.40
2019-02-14T08:15:14.756Z,9.33
2019-02-14T08:17:43.459Z,7.47
2019-02-14T08:20:17.289Z,6.10
2019-02-14T08:22:45.887Z,5.97
2019-02-14T08:25:14.573Z,5.53
2019-02-14T08:27:43.234Z,5.80
2019-02-14T08:30:16.832Z,5.43
2019-02-14T08:32:45.446Z,5.60
2019-02-14T08:35:14.102Z,6.03
2019-02-14T08:37:45.481Z,5.80
2019-02-14T08:40:22.525Z,5.03
2019-02-14T08:42:51.102Z,5.37
2019-02-14T08:45:19.989Z,5.93
2019-02-14T08:47:48.625Z,6.47
2019-02-14T08:50:17.261Z,6.20
2019-02-14T08:52:45.847Z,5.90
2019-02-14T08:55:14.481Z,6.10
2019-02-14T08:57:43.278Z,5.43
2019-02-14T09:00:16.156Z,5.10
2019-02-14T09:02:44.805Z,5.70
2019-02-14T09:05:13.603Z,5.70
2019-02-14T09:07:42.237Z,5.83
2019-02-14T09:10:15.672Z,6.43
2019-02-14T09:12:44.316Z,6.60
2019-02-14T09:15:14.530Z,6.23
2019-02-14T09:17:43.095Z,5.87
2019-02-14T09:20:14.381Z,6.40
2019-02-14T09:22:43.017Z,6.77
2019-02-14T09:25:11.724Z,6.20
2019-02-14T09:27:40.310Z,6.70
2019-02-14T09:30:11.197Z,7.67
2019-02-14T09:32:39.858Z,6.77
2019-02-14T09:35:09.763Z,8.40
2019-02-14T09:37:38.518Z,6.83
2019-02-14T09:40:10.181Z,7.80
2019-02-14T09:42:38.826Z,7.30
2019-02-14T09:45:10.173Z,7.00
2019-02-14T09:47:38.798Z,6.67
2019-02-14T09:50:10.598Z,6.70
2019-02-14T09:52:39.633Z,6.33
2019-02-14T09:55:10.936Z,7.30
2019-02-14T09:57:39.690Z,6.03
2019-02-14T10:00:11.153Z,6.70
2019-02-14T10:02:39.853Z,5.97
2019-02-14T10:05:09.529Z,6.77
2019-02-14T10:07:38.190Z,6.77
2019-02-14T10:10:10.154Z,7.73
2019-02-14T10:12:38.877Z,7.03
2019-02-14T10:15:09.083Z,7.20
2019-02-14T10:17:37.646Z,7.40
2019-02-14T10:20:15.229Z,7.13
2019-02-14T10:22:43.793Z,7.50
2019-02-14T10:25:13.328Z,7.83
2019-02-14T10:27:42.134Z,6.70
2019-02-14T10:30:19.245Z,7.27
2019-02-14T10:32:47.893Z,6.87
2019-02-14T10:35:16.446Z,7.07
2019-02-14T10:37:45.279Z,7.53
2019-02-14T10:40:15.469Z,6.50
2019-02-14T10:42:44.305Z,6.80
2019-02-14T10:45:23.542Z,6.87
2019-02-14T10:47:52.612Z,6.93
2019-02-14T10:50:21.243Z,6.90
2019-02-14T10:52:49.867Z,6.97
2019-02-14T10:55:18.467Z,6.73
2019-02-14T10:57:47.032Z,6.87
2019-02-14T11:00:23.597Z,6.63
2019-02-14T11:02:52.434Z,6.87
2019-02-14T11:05:21.377Z,7.27
2019-02-14T11:07:50.081Z,7.20
2019-02-14T11:10:18.861Z,7.33
2019-02-14T11:12:47.526Z,7.50
2019-02-14T11:15:20.971Z,7.03
2019-02-14T11:17:49.806Z,7.20
2019-02-14T11:20:18.523Z,6.83
2019-02-14T11:22:48.846Z,7.13
2019-02-14T11:25:28.862Z,7.97
2019-02-14T11:27:57.419Z,7.67
2019-02-14T11:30:26.307Z,8.13
2019-02-14T11:32:54.865Z,7.30
2019-02-14T11:35:23.495Z,6.50
2019-02-14T11:37:52.231Z,7.67
2019-02-14T11:40:20.792Z,7.03
2019-02-14T11:42:49.465Z,6.75
2019-02-14T11:45:23.116Z,6.78
2019-02-14T11:47:51.673Z,7.08
2019-02-14T11:50:20.337Z,6.78
2019-02-14T11:52:48.965Z,7.17
2019-02-14T11:55:17.625Z,6.65
2019-02-14T11:57:46.330Z,7.42
2019-02-14T12:00:27.882Z,6.50
2019-02-14T12:02:56.550Z,7.53
2019-02-14T12:05:25.346Z,6.62
2019-02-14T12:07:53.933Z,6.00
2019-02-14T12:10:22.637Z,6.15
2019-02-14T12:12:51.303Z,7.42
2019-02-14T12:15:20.003Z,6.58
2019-02-14T12:17:48.605Z,6.25
2019-02-14T12:20:17.239Z,5.97
2019-02-14T12:22:47.200Z,6.47
2019-02-14T12:25:18.594Z,6.45
2019-02-14T12:27:47.153Z,6.78
2019-02-14T12:30:15.995Z,5.78
2019-02-14T12:32:44.618Z,5.55
2019-02-14T12:35:13.254Z,6.05
2019-02-14T12:37:41.986Z,5.70
2019-02-14T12:40:12.189Z,5.20
2019-02-14T12:42:40.909Z,5.40
2019-02-14T12:45:20.345Z,6.05
2019-02-14T12:47:42.810Z,6.45
2019-02-14T12:50:11.513Z,6.00
2019-02-14T12:52:40.130Z,6.00
2019-02-14T12:55:08.974Z,6.12
2019-02-14T12:57:37.530Z,6.22
2019-02-14T13:00:12.166Z,6.40
2019-02-14T13:02:40.729Z,6.22
2019-02-14T13:05:09.662Z,6.87
2019-02-14T13:07:38.225Z,7.58
2019-02-14T13:10:09.899Z,6.55
2019-02-14T13:12:38.563Z,6.72
2019-02-14T13:15:10.429Z,6.20
2019-02-14T13:17:39.086Z,5.67
2019-02-14T13:20:08.720Z,5.93
2019-02-14T13:22:37.483Z,6.37
2019-02-14T13:25:09.289Z,6.30
2019-02-14T13:27:37.926Z,6.20
2019-02-14T13:30:09.930Z,6.80
2019-02-14T13:32:38.637Z,6.47
2019-02-14T13:35:07.575Z,6.70
2019-02-14T13:37:36.216Z,6.43
2019-02-14T13:40:06.162Z,6.63
2019-02-14T13:42:34.706Z,6.03
2019-02-14T13:45:03.512Z,6.40
2019-02-14T13:47:32.107Z,6.40
2019-02-14T13:50:00.772Z,6.27
2019-02-14T13:52:29.429Z,7.33
2019-02-14T13:54:57.978Z,6.60
2019-02-14T13:57:26.609Z,7.77
2019-02-14T13:59:55.201Z,7.03
2019-02-14T14:02:23.779Z,6.62
2019-02-14T14:04:52.362Z,6.62
2019-02-14T14:07:20.990Z,6.55
2019-02-14T14:09:49.591Z,6.37
2019-02-14T14:12:18.222Z,6.78
2019-02-14T14:14:46.796Z,6.80
2019-02-14T14:17:15.602Z,6.67
2019-02-14T14:19:44.187Z,5.72
2019-02-14T14:22:12.922Z,5.20
2019-02-14T14:24:41.529Z,6.25
2019-02-14T14:27:10.238Z,5.42
2019-02-14T14:29:38.810Z,6.33
2019-02-14T14:32:07.378Z,5.58
2019-02-14T14:34:35.976Z,6.47
2019-02-14T14:37:04.543Z,6.47
2019-02-14T14:39:33.142Z,6.10
2019-02-14T14:42:02.775Z,6.13
2019-02-14T14:44:33.053Z,5.77
2019-02-14T14:47:01.657Z,6.03
2019-02-14T14:49:30.212Z,6.33
2019-02-14T14:51:58.886Z,6.00
2019-02-14T14:54:27.448Z,5.80
2019-02-14T14:56:56.014Z,6.03
2019-02-14T14:59:24.681Z,6.13
2019-02-14T15:01:53.333Z,5.83
2019-02-14T15:04:22.000Z,5.00
2019-02-14T15:06:50.574Z,5.63
2019-02-14T15:09:19.208Z,6.00
2019-02-14T15:11:47.836Z,5.63
2019-02-14T15:14:16.382Z,5.63
2019-02-14T15:16:44.975Z,5.73
2019-02-14T15:19:13.533Z,5.90
2019-02-14T15:21:42.128Z,5.73
2019-02-14T15:24:10.695Z,6.70
2019-02-14T15:26:39.260Z,5.70
2019-02-14T15:29:07.858Z,5.80
2019-02-14T15:31:36.421Z,5.87
2019-02-14T15:34:05.005Z,5.70
2019-02-14T15:36:33.563Z,5.63
2019-02-14T15:39:02.521Z,4.87
2019-02-14T15:41:31.086Z,5.77
2019-02-14T15:43:59.737Z,5.30
2019-02-14T15:46:28.396Z,5.70
2019-02-14T15:48:57.042Z,10.67
2019-02-14T15:51:25.726Z,8.90
2019-02-14T15:53:54.290Z,8.93
2019-02-14T15:56:23.004Z,6.73
2019-02-14T15:58:52.419Z,5.53
2019-02-14T16:01:21.919Z,5.33
2019-02-14T16:03:50.741Z,5.80
2019-02-14T16:06:19.365Z,7.47
2019-02-14T16:08:48.903Z,8.23
2019-02-14T16:11:17.639Z,7.00
2019-02-14T16:13:46.188Z,5.63
2019-02-14T16:16:14.774Z,5.50
2019-02-14T16:18:44.502Z,4.97
2019-02-14T16:21:13.829Z,5.10
2019-02-14T16:23:42.458Z,5.77
2019-02-14T16:26:11.089Z,4.70
2019-02-14T16:28:39.904Z,4.97
2019-02-14T16:31:08.558Z,4.80
2019-02-14T16:33:37.141Z,5.20
2019-02-14T16:36:05.839Z,4.20
2019-02-14T16:38:35.628Z,4.40
2019-02-14T16:41:04.774Z,4.53
2019-02-14T16:43:33.361Z,4.20
2019-02-14T16:46:01.940Z,3.83
2019-02-14T16:48:30.491Z,4.10
2019-02-14T16:50:59.167Z,4.20
2019-02-14T16:53:27.714Z,3.77
2019-02-14T16:56:02.158Z,3.80
2019-02-14T16:58:26.759Z,4.30
2019-02-14T17:00:55.301Z,5.03
2019-02-14T17:03:23.925Z,4.67
2019-02-14T17:05:52.533Z,4.30
2019-02-14T17:08:21.096Z,4.80
2019-02-14T17:10:49.713Z,4.50
2019-02-14T17:13:18.370Z,4.00
2019-02-14T17:15:47.016Z,4.23
2019-02-14T17:18:15.597Z,4.00
2019-02-14T17:20:44.158Z,4.47
2019-02-14T17:23:12.807Z,4.97
2019-02-14T17:25:41.442Z,5.00
2019-02-14T17:28:10.064Z,4.97
2019-02-14T17:30:38.763Z,4.90
2019-02-14T17:33:07.387Z,4.80
2019-02-14T17:35:35.971Z,4.60
2019-02-14T17:38:04.597Z,5.17
2019-02-14T17:40:33.190Z,4.07
2019-02-14T17:43:01.826Z,5.73
2019-02-14T17:45:30.398Z,6.37
2019-02-14T17:47:58.985Z,5.87
2019-02-14T17:50:27.539Z,6.13
2019-02-14T17:52:56.194Z,5.83
2019-02-14T17:55:24.822Z,7.20
2019-02-14T17:57:53.973Z,9.30
2019-02-14T18:00:22.550Z,7.70
2019-02-14T18:02:51.175Z,9.17
2019-02-14T18:05:19.839Z,9.40
2019-02-14T18:07:48.413Z,61.60
2019-02-14T18:10:17.150Z,45.80
2019-02-14T18:12:45.731Z,13.80
2019-02-14T18:15:15.242Z,6.97
2019-02-14T18:17:43.797Z,4.97
2019-02-14T18:20:12.422Z,5.23
2019-02-14T18:22:41.079Z,4.03
2019-02-14T18:25:12.910Z,4.47
2019-02-14T18:27:41.646Z,3.57
2019-02-14T18:30:13.546Z,4.10
2019-02-14T18:32:42.218Z,3.40
2019-02-14T18:35:12.107Z,3.43
2019-02-14T18:37:40.776Z,3.57
2019-02-14T18:40:10.778Z,3.40
2019-02-14T18:42:47.482Z,4.00
2019-02-14T18:45:16.181Z,3.77
2019-02-14T18:47:44.752Z,3.40
2019-02-14T18:50:14.355Z,3.40
2019-02-14T18:52:43.041Z,4.17
2019-02-14T18:55:12.078Z,3.93
2019-02-14T18:57:40.794Z,4.13
2019-02-14T19:00:14.801Z,4.33
2019-02-14T19:02:43.362Z,4.40
2019-02-14T19:05:12.354Z,5.00
2019-02-14T19:07:41.309Z,5.37
2019-02-14T19:10:14.810Z,5.57
2019-02-14T19:12:43.522Z,4.47
2019-02-14T19:15:15.038Z,5.07
2019-02-14T19:17:43.730Z,4.70
2019-02-14T19:20:13.421Z,4.50
2019-02-14T19:22:42.420Z,4.87
2019-02-14T19:25:11.335Z,4.77
2019-02-14T19:27:39.968Z,4.93
2019-02-14T19:30:10.862Z,4.83
2019-02-14T19:32:39.522Z,4.27
2019-02-14T19:35:09.621Z,4.43
2019-02-14T19:37:38.286Z,4.40
2019-02-14T19:40:08.481Z,5.30
2019-02-14T19:42:37.076Z,5.10
2019-02-14T19:45:08.945Z,5.90
2019-02-14T19:47:37.523Z,7.10
2019-02-14T19:50:11.757Z,7.43
2019-02-14T19:52:40.410Z,7.27
2019-02-14T19:55:10.026Z,6.87
2019-02-14T19:57:38.654Z,6.47
2019-02-14T20:00:12.712Z,6.00
2019-02-14T20:02:41.309Z,6.60
2019-02-14T20:05:10.414Z,7.03
2019-02-14T20:07:39.020Z,6.10
2019-02-14T20:10:13.207Z,6.90
2019-02-14T20:12:41.857Z,6.53
2019-02-14T20:15:15.832Z,7.27
2019-02-14T20:17:44.637Z,7.13
2019-02-14T20:20:13.337Z,7.07
2019-02-14T20:22:41.969Z,7.50
2019-02-14T20:25:25.512Z,7.53
2019-02-14T20:27:54.270Z,8.03
2019-02-14T20:30:22.888Z,9.73
2019-02-14T20:32:51.518Z,11.43
2019-02-14T20:35:20.191Z,11.80
2019-02-14T20:37:48.750Z,9.67
2019-02-14T20:40:17.428Z,10.17
2019-02-14T20:42:45.991Z,11.43
2019-02-14T20:45:15.270Z,12.93
2019-02-14T20:47:43.989Z,8.70
2019-02-14T20:50:13.878Z,6.50
2019-02-14T20:52:42.726Z,5.90
2019-02-14T20:55:23.411Z,6.47
2019-02-14T20:57:52.143Z,6.53
2019-02-14T21:00:34.730Z,7.37
2019-02-14T21:03:03.400Z,6.93
2019-02-14T21:05:32.327Z,7.70
2019-02-14T21:08:01.155Z,7.07
2019-02-14T21:10:29.871Z,6.70
2019-02-14T21:12:58.500Z,5.60
2019-02-14T21:15:27.167Z,6.47
2019-02-14T21:17:55.786Z,6.10
2019-02-14T21:20:24.486Z,5.70
2019-02-14T21:22:53.074Z,6.20
2019-02-14T21:25:23.345Z,6.33
2019-02-14T21:27:52.094Z,5.37
2019-02-14T21:30:21.090Z,6.27
2019-02-14T21:32:49.805Z,6.67
2019-02-14T21:35:18.455Z,7.00
2019-02-14T21:37:47.321Z,6.73
2019-02-14T21:40:20.082Z,8.47
2019-02-14T21:42:49.071Z,8.30
2019-02-14T21:45:18.247Z,7.67
2019-02-14T21:47:46.953Z,6.73
2019-02-14T21:50:16.132Z,7.50
2019-02-14T21:52:44.811Z,6.80
2019-02-14T21:55:14.408Z,8.03
2019-02-14T21:57:43.153Z,10.63
2019-02-14T22:00:17.567Z,23.07
2019-02-14T22:02:46.477Z,21.03
2019-02-14T22:05:15.349Z,18.70
2019-02-14T22:07:43.990Z,15.70
2019-02-14T22:10:13.655Z,13.57
2019-02-14T22:12:43.586Z,10.80
2019-02-14T22:15:15.491Z,10.67
2019-02-14T22:17:44.540Z,12.57
2019-02-14T22:20:13.330Z,14.83
2019-02-14T22:22:41.894Z,13.70
2019-02-14T22:25:11.330Z,12.20
2019-02-14T22:27:40.662Z,10.43
2019-02-14T22:30:18.943Z,9.57
2019-02-14T22:32:47.660Z,10.87
2019-02-14T22:35:16.362Z,10.93
2019-02-14T22:37:45.011Z,8.60
2019-02-14T22:40:14.474Z,8.67
2019-02-14T22:42:46.969Z,7.90
2019-02-14T22:45:14.526Z,7.20
2019-02-14T22:47:44.594Z,7.13
2019-02-14T22:50:13.594Z,8.23
2019-02-14T22:52:42.231Z,9.60
2019-02-14T22:55:12.257Z,9.83
2019-02-14T22:57:41.267Z,10.40
2019-02-14T23:00:13.025Z,9.77
2019-02-14T23:02:41.726Z,9.00
2019-02-14T23:05:11.121Z,8.57
2019-02-14T23:07:39.938Z,8.33
2019-02-14T23:10:08.663Z,9.23
2019-02-14T23:12:37.394Z,9.07
2019-02-14T23:15:07.602Z,10.00
2019-02-14T23:17:36.264Z,8.50
2019-02-14T23:20:06.457Z,8.73
2019-02-14T23:22:35.029Z,8.77
2019-02-14T23:25:04.257Z,8.87
2019-02-14T23:27:32.953Z,7.83
2019-02-14T23:30:01.617Z,8.30
2019-02-14T23:32:30.189Z,7.83
2019-02-14T23:34:58.863Z,8.03
2019-02-14T23:37:27.413Z,7.77
2019-02-14T23:39:56.488Z,8.27
2019-02-14T23:42:25.222Z,8.13
2019-02-14T23:44:53.854Z,8.27
2019-02-14T23:47:22.810Z,8.43
2019-02-14T23:49:51.721Z,7.00
2019-02-14T23:52:21.746Z,8.30
2019-02-14T23:54:50.510Z,8.27
2019-02-14T23:57:19.226Z,9.07
2019-02-14T23:59:48.029Z,7.57
